Central, Louisiana
Current Conditions -  °F | °C
As of 7:53 PM on Saturday 22 Nov 2014 (Local Time) from KBTR Reporting Station
Overcast Overcast  
Wind Chill: 64°   Ceiling: 900
Heat Index: 64°   Visibility: 10mi
Dew Point: 59°   Wind: 12mph
Humidity: 84%   Direction: 70°ENE
Pressure: 29.95"   Gusts: NA
Location:  30.55°N, 91.04°W
Report Text: KBTR 230153Z 07010KT 10SM OVC009 18/15 A2995 RMK AO2 SLP141 T01780150
Loading
Personal Weather Stations






























Interactive Weather Map New forecast layout! Learn more

10-Day Weather Forecast

Advertisements
Track Severe Weather on mobile